Time;durP1;ratioP1;P1;durP2;ratioP2;P2;SDS_P1;SDS_P2;PMS_P1;PMS_P2;Temp;Humidity;BMP_temperature;BMP_pressure;BME280_temperature;BME280_humidity;BME280_pressure;Samples;Min_cycle;Max_cycle;Signal;HPM_P1;HPM_P2
2022/07/08 00:01:58;;;;;;;9.43;6.17;;;;;;;;;;6188580;28;20098;-87
2022/07/08 00:04:58;;;;;;;7.85;5.28;;;;;;;;;;6189885;28;20015;-87
2022/07/08 00:07:59;;;;;;;7.57;5.87;;;;;;;;;;6189993;28;20029;-87
2022/07/08 00:10:59;;;;;;;6.43;4.90;;;;;;;;;;6195041;28;20105;-87
2022/07/08 00:13:59;;;;;;;10.40;4.57;;;;;;;;;;6192965;28;20018;-87
2022/07/08 00:16:59;;;;;;;6.13;4.60;;;;;;;;;;6192044;28;20208;-87
2022/07/08 00:20:00;;;;;;;9.98;5.25;;;;;;;;;;6200261;28;20137;-87
2022/07/08 00:23:00;;;;;;;8.47;3.97;;;;;;;;;;6192205;28;20015;-87
2022/07/08 00:26:00;;;;;;;14.70;4.40;;;;;;;;;;6191649;28;20473;-87
2022/07/08 00:29:00;;;;;;;7.77;3.43;;;;;;;;;;6195312;28;20544;-87
2022/07/08 00:32:01;;;;;;;10.17;4.50;;;;;;;;;;6193955;28;20077;-87
2022/07/08 00:35:01;;;;;;;5.30;2.60;;;;;;;;;;6195220;28;20034;-88
2022/07/08 00:38:01;;;;;;;7.60;3.87;;;;;;;;;;6188847;28;20010;-88
2022/07/08 00:41:02;;;;;;;7.47;3.40;;;;;;;;;;6180586;28;20030;-87
2022/07/08 00:44:02;;;;;;;5.90;3.07;;;;;;;;;;6191598;28;20019;-87
2022/07/08 00:47:02;;;;;;;4.83;2.97;;;;;;;;;;6199308;28;20033;-87
2022/07/08 00:50:03;;;;;;;6.67;3.80;;;;;;;;;;6185258;28;20118;-87
2022/07/08 00:53:04;;;;;;;5.80;3.17;;;;;;;;;;6192802;28;20033;-88
2022/07/08 00:56:04;;;;;;;7.27;3.23;;;;;;;;;;6195680;28;20033;-87
2022/07/08 00:59:05;;;;;;;8.03;3.93;;;;;;;;;;6189103;28;20018;-87
2022/07/08 01:02:05;;;;;;;7.60;3.10;;;;;;;;;;6189036;28;20030;-87
2022/07/08 01:05:05;;;;;;;6.00;4.00;;;;;;;;;;6188768;28;20295;-87
2022/07/08 01:08:06;;;;;;;4.10;3.07;;;;;;;;;;6192528;28;20210;-87
2022/07/08 01:11:09;;;;;;;6.13;3.60;;;;;;;;;;6195425;28;20088;-87
2022/07/08 01:14:09;;;;;;;7.22;3.22;;;;;;;;;;6188694;28;20050;-87
2022/07/08 01:17:09;;;;;;;10.93;3.77;;;;;;;;;;6189094;28;20434;-87
2022/07/08 01:20:11;;;;;;;8.10;3.97;;;;;;;;;;6186939;28;20315;-87
2022/07/08 01:23:11;;;;;;;4.82;3.17;;;;;;;;;;6185125;28;20041;-87
2022/07/08 01:26:12;;;;;;;5.38;2.90;;;;;;;;;;6187204;28;20062;-87
2022/07/08 01:29:12;;;;;;;3.30;2.77;;;;;;;;;;6187819;28;20614;-87
2022/07/08 01:32:13;;;;;;;3.80;2.50;;;;;;;;;;6187327;28;20509;-87
2022/07/08 01:35:13;;;;;;;5.37;3.20;;;;;;;;;;6185665;28;20518;-87
2022/07/08 01:38:13;;;;;;;5.80;3.47;;;;;;;;;;6192869;28;20053;-87
2022/07/08 01:41:13;;;;;;;5.53;3.57;;;;;;;;;;6184612;28;20014;-87
2022/07/08 01:44:13;;;;;;;2.73;2.30;;;;;;;;;;6185905;28;20282;-87
2022/07/08 01:47:14;;;;;;;4.87;2.50;;;;;;;;;;6183632;28;20841;-87
2022/07/08 01:50:14;;;;;;;4.87;2.33;;;;;;;;;;6185786;28;20030;-87
2022/07/08 01:53:14;;;;;;;4.13;2.90;;;;;;;;;;6193733;28;20409;-87
2022/07/08 01:56:15;;;;;;;3.07;2.53;;;;;;;;;;6194351;28;20430;-88
2022/07/08 01:59:15;;;;;;;3.13;2.37;;;;;;;;;;6195197;28;20145;-87
2022/07/08 02:02:16;;;;;;;6.23;2.77;;;;;;;;;;6192108;28;20030;-87
2022/07/08 02:05:17;;;;;;;5.73;2.73;;;;;;;;;;6189080;28;20057;-87
2022/07/08 02:08:17;;;;;;;3.38;2.10;;;;;;;;;;6186782;28;20269;-87
2022/07/08 02:14:36;;;;;;;3.58;2.30;;;;;;;;;;6188158;28;20034;-87
2022/07/08 02:17:41;;;;;;;5.23;3.10;;;;;;;;;;6186241;28;20065;-87
2022/07/08 02:20:41;;;;;;;6.13;2.85;;;;;;;;;;6184888;28;20459;-87
2022/07/08 02:23:41;;;;;;;4.17;2.50;;;;;;;;;;6188267;28;20093;-87
2022/07/08 02:26:41;;;;;;;4.93;2.40;;;;;;;;;;6186955;28;20126;-87
2022/07/08 02:29:41;;;;;;;6.47;3.60;;;;;;;;;;6188856;28;20021;-87
2022/07/08 02:32:42;;;;;;;4.03;2.90;;;;;;;;;;6186375;28;20470;-87
2022/07/08 02:35:42;;;;;;;7.47;2.67;;;;;;;;;;6189430;28;20031;-87
2022/07/08 02:38:42;;;;;;;5.20;3.03;;;;;;;;;;6186911;28;20101;-87
2022/07/08 02:41:42;;;;;;;5.23;2.70;;;;;;;;;;6189896;28;20042;-87
2022/07/08 02:44:43;;;;;;;6.50;3.67;;;;;;;;;;6185527;28;20022;-87
2022/07/08 02:47:43;;;;;;;4.60;2.80;;;;;;;;;;6194921;28;20045;-87
2022/07/08 02:50:43;;;;;;;4.00;2.80;;;;;;;;;;6196205;28;20022;-87
2022/07/08 02:53:43;;;;;;;7.03;2.73;;;;;;;;;;6192194;28;20073;-87
2022/07/08 02:56:44;;;;;;;6.35;2.95;;;;;;;;;;6191459;28;20026;-87
2022/07/08 02:59:44;;;;;;;4.70;2.97;;;;;;;;;;6204317;28;20103;-87
2022/07/08 03:02:44;;;;;;;5.23;2.63;;;;;;;;;;6180260;28;20042;-87
2022/07/08 03:05:44;;;;;;;4.37;2.73;;;;;;;;;;6188047;28;20027;-87
2022/07/08 03:08:45;;;;;;;4.18;2.78;;;;;;;;;;6196115;28;20014;-87
2022/07/08 03:11:45;;;;;;;4.20;3.20;;;;;;;;;;6190550;28;20449;-87
2022/07/08 03:14:45;;;;;;;3.23;2.60;;;;;;;;;;6190269;28;20568;-87
2022/07/08 03:17:45;;;;;;;5.55;3.63;;;;;;;;;;6190448;28;20060;-87
2022/07/08 03:20:46;;;;;;;4.43;2.90;;;;;;;;;;6191323;28;20042;-87
2022/07/08 03:23:46;;;;;;;4.03;3.30;;;;;;;;;;6185286;28;20049;-87
2022/07/08 03:26:46;;;;;;;5.03;3.73;;;;;;;;;;6190589;28;20022;-88
2022/07/08 03:29:46;;;;;;;5.07;3.40;;;;;;;;;;6197774;28;20033;-87
2022/07/08 03:32:47;;;;;;;5.67;3.40;;;;;;;;;;6192030;28;20169;-87
2022/07/08 03:35:47;;;;;;;5.63;3.60;;;;;;;;;;6192048;28;20485;-87
2022/07/08 03:38:48;;;;;;;7.28;3.28;;;;;;;;;;6181227;28;20057;-87
2022/07/08 03:41:49;;;;;;;6.40;3.33;;;;;;;;;;6190037;28;20113;-87
2022/07/08 03:44:49;;;;;;;6.37;3.83;;;;;;;;;;6196427;28;20018;-87
2022/07/08 03:47:49;;;;;;;7.30;3.83;;;;;;;;;;6189290;28;20022;-87
2022/07/08 03:50:49;;;;;;;7.13;3.93;;;;;;;;;;6192895;28;20433;-87
2022/07/08 03:53:50;;;;;;;6.73;4.13;;;;;;;;;;6190403;28;20443;-87
2022/07/08 03:56:50;;;;;;;8.17;4.67;;;;;;;;;;6188389;28;20389;-87
2022/07/08 03:59:51;;;;;;;7.53;4.60;;;;;;;;;;6188331;28;20513;-87
2022/07/08 04:02:51;;;;;;;9.03;3.90;;;;;;;;;;6192340;28;20037;-87
2022/07/08 04:05:51;;;;;;;8.70;5.13;;;;;;;;;;6189937;28;20478;-87
2022/07/08 04:08:51;;;;;;;6.87;3.93;;;;;;;;;;6190344;28;20434;-87
2022/07/08 04:11:52;;;;;;;6.28;3.72;;;;;;;;;;6192568;28;20058;-87
2022/07/08 04:14:52;;;;;;;6.87;3.83;;;;;;;;;;6195315;28;20022;-87
2022/07/08 04:17:52;;;;;;;6.07;3.60;;;;;;;;;;6189393;28;20037;-87
2022/07/08 04:20:53;;;;;;;8.57;3.50;;;;;;;;;;6190789;28;20023;-87
2022/07/08 04:23:58;;;;;;;8.93;3.87;;;;;;;;;;6189049;28;20042;-87
2022/07/08 04:26:58;;;;;;;6.13;3.55;;;;;;;;;;6186122;28;20371;-87
2022/07/08 04:29:58;;;;;;;5.50;3.60;;;;;;;;;;6191826;28;20034;-87
2022/07/08 04:32:58;;;;;;;7.32;3.88;;;;;;;;;;6189962;28;20093;-87
2022/07/08 04:35:58;;;;;;;3.88;3.25;;;;;;;;;;6184730;28;20418;-87
2022/07/08 04:38:59;;;;;;;6.67;4.00;;;;;;;;;;6180816;28;20050;-87
2022/07/08 04:41:59;;;;;;;6.67;4.20;;;;;;;;;;6180588;28;20025;-88
2022/07/08 04:44:59;;;;;;;7.97;3.07;;;;;;;;;;6177686;28;20240;-87
2022/07/08 04:47:59;;;;;;;10.17;3.77;;;;;;;;;;6185852;28;20030;-87
2022/07/08 04:50:59;;;;;;;10.37;3.83;;;;;;;;;;6187496;28;20101;-87
2022/07/08 04:54:00;;;;;;;6.43;3.70;;;;;;;;;;6187483;28;20397;-88
2022/07/08 04:57:00;;;;;;;9.87;4.00;;;;;;;;;;6189233;28;20031;-87
2022/07/08 05:00:00;;;;;;;5.07;3.03;;;;;;;;;;6183576;28;20454;-88
2022/07/08 05:03:01;;;;;;;5.60;3.73;;;;;;;;;;6188108;28;20023;-87
2022/07/08 05:06:01;;;;;;;7.57;3.83;;;;;;;;;;6182188;28;20041;-87
2022/07/08 05:09:01;;;;;;;7.87;3.40;;;;;;;;;;6185902;28;20426;-86
2022/07/08 05:12:02;;;;;;;5.70;3.33;;;;;;;;;;6185628;28;20030;-87
2022/07/08 05:15:02;;;;;;;5.17;3.50;;;;;;;;;;6179293;28;20033;-87
2022/07/08 05:18:02;;;;;;;4.40;4.00;;;;;;;;;;6185477;28;20355;-87
2022/07/08 05:21:03;;;;;;;9.73;3.63;;;;;;;;;;6170325;28;20018;-87
2022/07/08 05:24:06;;;;;;;10.27;4.27;;;;;;;;;;6181777;28;20034;-87
2022/07/08 05:27:07;;;;;;;4.95;3.30;;;;;;;;;;6176581;28;20049;-87
2022/07/08 05:30:08;;;;;;;10.67;3.70;;;;;;;;;;6185526;28;20438;-86
2022/07/08 05:33:08;;;;;;;;;;;;;;;;;;6174939;28;20566;-87
2022/07/08 05:36:09;;;;;;;9.30;4.30;;;;;;;;;;6180272;28;20400;-87
2022/07/08 05:39:10;;;;;;;8.07;3.50;;;;;;;;;;6181868;28;20032;-86
2022/07/08 05:42:11;;;;;;;9.07;3.87;;;;;;;;;;6184332;28;20035;-86
2022/07/08 05:45:13;;;;;;;6.57;3.90;;;;;;;;;;6181477;28;20061;-87
2022/07/08 05:48:13;;;;;;;9.05;4.25;;;;;;;;;;6182333;28;20018;-86
2022/07/08 05:51:13;;;;;;;6.57;3.40;;;;;;;;;;6180708;28;20024;-86
2022/07/08 05:54:13;;;;;;;7.63;3.20;;;;;;;;;;6195480;28;20029;-86
2022/07/08 05:57:15;;;;;;;5.07;3.60;;;;;;;;;;6194532;28;20065;-86
2022/07/08 06:00:15;;;;;;;8.73;4.00;;;;;;;;;;6184956;28;20315;-87
2022/07/08 06:03:15;;;;;;;8.93;3.67;;;;;;;;;;6182176;28;20245;-86
2022/07/08 06:06:15;;;;;;;8.48;4.32;;;;;;;;;;6195827;28;20164;-86
2022/07/08 06:09:16;;;;;;;7.73;4.07;;;;;;;;;;6182552;28;20141;-87
2022/07/08 06:12:16;;;;;;;10.67;6.53;;;;;;;;;;6185796;28;20390;-86
2022/07/08 06:15:16;;;;;;;10.03;5.60;;;;;;;;;;6175076;28;20582;-87
2022/07/08 06:18:16;;;;;;;11.60;4.70;;;;;;;;;;6177068;28;20109;-87
2022/07/08 06:21:16;;;;;;;8.47;5.20;;;;;;;;;;6178921;28;20022;-87
2022/07/08 06:24:17;;;;;;;7.67;4.67;;;;;;;;;;6184820;28;20517;-87
2022/07/08 06:27:17;;;;;;;7.80;4.47;;;;;;;;;;6186391;28;20026;-87
2022/07/08 06:30:17;;;;;;;5.43;3.93;;;;;;;;;;6186390;28;20116;-87
2022/07/08 06:33:18;;;;;;;6.17;3.77;;;;;;;;;;6184555;28;20350;-87
2022/07/08 06:36:18;;;;;;;8.48;4.82;;;;;;;;;;6190350;28;20541;-87
2022/07/08 06:39:18;;;;;;;11.13;3.93;;;;;;;;;;6185055;28;20019;-87
2022/07/08 06:42:19;;;;;;;4.70;3.10;;;;;;;;;;6187844;28;20046;-86
2022/07/08 06:45:20;;;;;;;;;;;;;;;;;;6182803;28;20038;-87
2022/07/08 06:48:20;;;;;;;7.50;2.80;;;;;;;;;;6176220;28;19914;-87
2022/07/08 06:51:20;;;;;;;5.30;3.30;;;;;;;;;;6173362;28;20562;-87
2022/07/08 06:54:36;;;;;;;4.60;3.57;;;;;;;;;;6172653;28;20041;-87
2022/07/08 06:57:36;;;;;;;3.88;2.80;;;;;;;;;;6185539;28;20019;-87
2022/07/08 07:00:36;;;;;;;4.47;2.33;;;;;;;;;;6179066;28;20356;-87
2022/07/08 07:03:39;;;;;;;2.57;2.37;;;;;;;;;;6184661;28;20042;-87
2022/07/08 07:06:39;;;;;;;3.30;2.33;;;;;;;;;;6184995;28;20057;-87
2022/07/08 07:09:40;;;;;;;4.07;2.57;;;;;;;;;;6187008;28;20068;-87
2022/07/08 07:12:40;;;;;;;5.77;2.17;;;;;;;;;;6188561;28;20022;-87
2022/07/08 07:15:40;;;;;;;2.40;1.93;;;;;;;;;;6188142;28;20497;-87
2022/07/08 07:18:40;;;;;;;2.65;2.05;;;;;;;;;;6187809;28;20022;-87
2022/07/08 07:21:40;;;;;;;5.45;2.50;;;;;;;;;;6183723;28;20022;-87
2022/07/08 07:24:41;;;;;;;4.90;2.90;;;;;;;;;;6185416;28;20093;-87
2022/07/08 07:27:41;;;;;;;6.18;2.47;;;;;;;;;;6191872;28;20462;-87
2022/07/08 07:30:41;;;;;;;3.60;2.83;;;;;;;;;;6193482;28;20023;-87
2022/07/08 07:33:42;;;;;;;2.57;2.37;;;;;;;;;;6190538;28;20018;-87
2022/07/08 07:36:42;;;;;;;3.97;2.60;;;;;;;;;;6193292;28;20025;-88
2022/07/08 07:39:42;;;;;;;3.87;2.53;;;;;;;;;;6192354;28;20093;-87
2022/07/08 07:42:42;;;;;;;3.38;2.15;;;;;;;;;;6183186;28;20022;-87
2022/07/08 07:45:43;;;;;;;6.77;2.43;;;;;;;;;;6188995;28;20053;-86
2022/07/08 07:48:43;;;;;;;3.45;2.00;;;;;;;;;;6191838;28;20077;-87
2022/07/08 07:51:43;;;;;;;3.20;2.20;;;;;;;;;;6182680;28;20060;-87
2022/07/08 07:54:43;;;;;;;2.17;1.85;;;;;;;;;;6184455;28;20382;-87
2022/07/08 07:57:45;;;;;;;4.40;2.25;;;;;;;;;;6189744;28;20030;-87
2022/07/08 08:00:46;;;;;;;3.30;1.55;;;;;;;;;;6189476;28;20117;-87
2022/07/08 08:03:46;;;;;;;;;;;;;;;;;;6192171;28;20068;-87
2022/07/08 08:06:46;;;;;;;6.10;1.98;;;;;;;;;;6184742;28;19910;-87
2022/07/08 08:09:46;;;;;;;;;;;;;;;;;;6175410;28;20055;-87
2022/07/08 08:12:46;;;;;;;5.75;2.10;;;;;;;;;;6183775;28;19920;-88
2022/07/08 08:15:47;;;;;;;3.97;2.05;;;;;;;;;;6189676;28;20105;-88
2022/07/08 08:18:47;;;;;;;2.10;1.70;;;;;;;;;;6192969;28;20498;-88
2022/07/08 08:21:47;;;;;;;1.63;1.50;;;;;;;;;;6176807;28;20498;-88
2022/07/08 08:24:47;;;;;;;2.17;1.60;;;;;;;;;;6177040;28;20081;-88
2022/07/08 08:27:47;;;;;;;;;;;;;;;;;;6177394;28;20537;-88
2022/07/08 08:30:48;;;;;;;3.38;1.98;;;;;;;;;;6188735;28;19941;-88
2022/07/08 08:33:48;;;;;;;;;;;;;;;;;;6170464;28;20521;-88
2022/07/08 08:36:48;;;;;;;4.10;1.90;;;;;;;;;;6180007;28;20350;-88
2022/07/08 08:39:48;;;;;;;2.27;1.70;;;;;;;;;;6179508;28;20026;-88
2022/07/08 08:42:49;;;;;;;3.10;1.80;;;;;;;;;;6175472;28;20360;-88
2022/07/08 08:45:51;;;;;;;3.73;1.40;;;;;;;;;;6180272;28;20101;-88
2022/07/08 08:48:56;;;;;;;1.27;1.17;;;;;;;;;;6194289;28;20296;-88
2022/07/08 08:51:58;;;;;;;2.35;1.10;;;;;;;;;;6184418;28;20037;-88
2022/07/08 08:54:58;;;;;;;2.67;1.70;;;;;;;;;;6206339;28;20378;-88
2022/07/08 08:58:00;;;;;;;2.23;1.70;;;;;;;;;;6192307;28;20026;-88
2022/07/08 09:01:00;;;;;;;4.90;2.47;;;;;;;;;;6191007;28;20315;-88
2022/07/08 09:04:00;;;;;;;;;;;;;;;;;;6192250;28;20512;-88
2022/07/08 09:07:02;;;;;;;4.25;2.38;;;;;;;;;;6188399;28;19906;-88
2022/07/08 09:10:02;;;;;;;;;;;;;;;;;;6179629;28;20206;-88
2022/07/08 09:13:14;;;;;;;3.85;1.88;;;;;;;;;;6192352;28;20340;-88
2022/07/08 09:16:14;;;;;;;4.50;2.40;;;;;;;;;;6176413;28;20529;-88
2022/07/08 09:19:15;;;;;;;2.77;2.17;;;;;;;;;;6179221;28;20022;-87
2022/07/08 09:22:15;;;;;;;1.73;1.52;;;;;;;;;;6179430;28;20046;-88
2022/07/08 09:25:15;;;;;;;3.20;2.10;;;;;;;;;;6185178;28;20047;-88
2022/07/08 09:28:16;;;;;;;4.63;1.70;;;;;;;;;;6181664;28;20101;-88
2022/07/08 09:31:16;;;;;;;4.57;1.70;;;;;;;;;;6179086;28;20026;-88
2022/07/08 09:34:19;;;;;;;2.20;1.88;;;;;;;;;;6183821;28;20022;-88
2022/07/08 09:37:20;;;;;;;2.10;1.45;;;;;;;;;;6178103;28;20754;-88
2022/07/08 09:40:20;;;;;;;1.55;1.45;;;;;;;;;;6181768;28;20023;-88
2022/07/08 09:43:21;;;;;;;3.53;1.80;;;;;;;;;;6186710;28;20018;-88
2022/07/08 09:46:21;;;;;;;1.60;1.45;;;;;;;;;;6184712;28;20047;-88
2022/07/08 09:49:34;;;;;;;2.40;1.70;;;;;;;;;;6187124;28;20124;-88
2022/07/08 09:52:34;;;;;;;5.30;2.25;;;;;;;;;;6188317;28;20022;-88
2022/07/08 09:55:37;;;;;;;4.47;1.85;;;;;;;;;;6188541;28;20586;-88
2022/07/08 09:58:38;;;;;;;3.28;1.70;;;;;;;;;;6188643;28;20026;-88
2022/07/08 10:01:38;;;;;;;;;;;;;;;;;;6181126;28;20415;-88
2022/07/08 10:04:39;;;;;;;2.47;1.63;;;;;;;;;;6179495;28;20262;-89
2022/07/08 10:07:39;;;;;;;;;;;;;;;;;;6178277;28;20146;-88
2022/07/08 10:10:40;;;;;;;2.00;1.80;;;;;;;;;;6176451;28;19957;-88
2022/07/08 10:13:40;;;;;;;2.40;1.85;;;;;;;;;;6184408;28;20036;-88
2022/07/08 10:16:41;;;;;;;;;;;;;;;;;;6188273;28;20022;-88
2022/07/08 10:19:41;;;;;;;3.03;2.03;;;;;;;;;;6188010;28;20004;-88
2022/07/08 10:22:41;;;;;;;;;;;;;;;;;;6180623;28;20022;-88
2022/07/08 10:25:42;;;;;;;33.65;8.05;;;;;;;;;;6175941;28;19973;-85
2022/07/08 10:28:42;;;;;;;17.93;9.90;;;;;;;;;;6174056;28;20022;-84
2022/07/08 10:31:44;;;;;;;11.93;9.07;;;;;;;;;;6179961;28;20537;-84
2022/07/08 10:34:44;;;;;;;;;;;;;;;;;;6176499;28;20161;-85
2022/07/08 10:37:44;;;;;;;14.90;11.52;;;;;;;;;;6194031;28;19918;-83
2022/07/08 10:40:49;;;;;;;18.93;11.90;;;;;;;;;;6177314;28;20007;-86
2022/07/08 10:43:53;;;;;;;21.70;16.73;;;;;;;;;;6188682;28;20490;-86
2022/07/08 10:46:53;;;;;;;27.58;19.38;;;;;;;;;;6186790;28;20029;-86
2022/07/08 10:50:01;;;;;;;24.65;18.15;;;;;;;;;;6184163;28;20022;-87
2022/07/08 10:53:01;;;;;;;19.60;14.07;;;;;;;;;;6184592;28;20022;-87
2022/07/08 10:56:01;;;;;;;17.93;12.90;;;;;;;;;;6184974;28;20026;-88
2022/07/08 10:59:17;;;;;;;17.20;12.30;;;;;;;;;;6184635;28;20328;-88
2022/07/08 11:02:19;;;;;;;19.80;12.55;;;;;;;;;;6178747;28;20378;-88
2022/07/08 11:05:33;;;;;;;17.00;13.55;;;;;;;;;;6177393;28;20031;-87
2022/07/08 11:08:33;;;;;;;20.73;14.60;;;;;;;;;;6186239;28;20461;-87
2022/07/08 11:11:35;;;;;;;20.70;15.40;;;;;;;;;;6188652;28;20030;-87
2022/07/08 11:14:36;;;;;;;19.30;13.70;;;;;;;;;;6184237;28;20397;-88
2022/07/08 11:17:37;;;;;;;19.97;14.27;;;;;;;;;;6181251;28;20666;-88
2022/07/08 11:20:37;;;;;;;26.53;14.93;;;;;;;;;;6187639;28;20026;-88
2022/07/08 11:23:37;;;;;;;18.67;14.13;;;;;;;;;;6176857;28;20622;-87
2022/07/08 11:26:38;;;;;;;19.63;14.10;;;;;;;;;;6179675;28;20049;-88
2022/07/08 11:29:45;;;;;;;16.40;13.83;;;;;;;;;;6187509;28;20018;-88
2022/07/08 11:32:49;;;;;;;15.23;11.85;;;;;;;;;;6181218;28;20022;-88
2022/07/08 11:35:49;;;;;;;15.43;9.70;;;;;;;;;;6178384;28;20031;-88
2022/07/08 11:38:50;;;;;;;13.90;10.47;;;;;;;;;;6183917;28;20021;-88
2022/07/08 11:41:51;;;;;;;15.80;10.40;;;;;;;;;;6177308;28;20073;-88
2022/07/08 11:44:51;;;;;;;13.27;10.27;;;;;;;;;;6183922;28;20042;-87
2022/07/08 11:47:51;;;;;;;14.27;10.43;;;;;;;;;;6187591;28;20053;-87
2022/07/08 11:50:53;;;;;;;14.23;10.77;;;;;;;;;;6176195;28;20494;-86
2022/07/08 11:53:53;;;;;;;12.60;10.60;;;;;;;;;;6183123;28;20022;-87
2022/07/08 11:56:54;;;;;;;11.37;9.37;;;;;;;;;;6178488;28;20117;-87
2022/07/08 11:59:54;;;;;;;11.65;8.65;;;;;;;;;;6179816;28;20018;-87
2022/07/08 12:02:54;;;;;;;10.13;8.70;;;;;;;;;;6180262;28;20076;-86
2022/07/08 12:05:55;;;;;;;10.60;8.47;;;;;;;;;;6190362;28;20053;-86
2022/07/08 12:08:55;;;;;;;9.37;7.80;;;;;;;;;;6190779;28;20494;-87
2022/07/08 12:11:56;;;;;;;12.87;8.83;;;;;;;;;;6189532;28;20026;-86
2022/07/08 12:14:57;;;;;;;;;;;;;;;;;;6187646;28;20557;-87
2022/07/08 12:17:57;;;;;;;12.93;8.43;;;;;;;;;;6186648;28;20452;-86
2022/07/08 12:20:57;;;;;;;14.03;8.80;;;;;;;;;;6181219;28;20510;-86
2022/07/08 12:23:59;;;;;;;8.80;6.70;;;;;;;;;;6185806;28;20038;-86
2022/07/08 12:27:00;;;;;;;8.75;6.43;;;;;;;;;;6187083;28;20084;-86
2022/07/08 12:30:00;;;;;;;;;;;;;;;;;;6182404;28;20654;-86
2022/07/08 12:33:02;;;;;;;8.02;6.45;;;;;;;;;;6183000;28;20655;-88
2022/07/08 12:36:05;;;;;;;;;;;;;;;;;;6177716;28;20034;-88
2022/07/08 12:39:12;;;;;;;12.68;8.32;;;;;;;;;;6182362;28;20506;-87
2022/07/08 12:42:12;;;;;;;13.05;9.48;;;;;;;;;;6190495;28;20023;-87
2022/07/08 12:45:13;;;;;;;16.83;9.77;;;;;;;;;;6189340;28;20517;-88
2022/07/08 12:48:14;;;;;;;13.82;9.98;;;;;;;;;;6183646;28;20458;-88
2022/07/08 12:51:14;;;;;;;15.55;9.35;;;;;;;;;;6188785;28;20019;-89
2022/07/08 12:54:16;;;;;;;12.60;8.83;;;;;;;;;;6190527;28;20080;-89
2022/07/08 12:57:16;;;;;;;11.57;8.00;;;;;;;;;;6190654;28;20053;-89
2022/07/08 13:00:19;;;;;;;15.77;10.33;;;;;;;;;;6187675;28;20034;-89
2022/07/08 13:03:20;;;;;;;16.02;10.43;;;;;;;;;;6187999;28;20053;-89
2022/07/08 13:06:22;;;;;;;16.63;12.97;;;;;;;;;;6188815;28;20026;-89
2022/07/08 13:09:22;;;;;;;11.73;7.90;;;;;;;;;;6199237;28;20026;-90
2022/07/08 13:12:23;;;;;;;12.90;7.83;;;;;;;;;;6190816;28;20034;-89
2022/07/08 13:15:23;;;;;;;12.90;7.70;;;;;;;;;;6189050;28;20020;-89
2022/07/08 13:18:24;;;;;;;8.77;6.70;;;;;;;;;;6191015;28;20386;-89
2022/07/08 13:21:24;;;;;;;11.77;7.17;;;;;;;;;;6191040;28;20438;-89
2022/07/08 13:24:24;;;;;;;12.63;7.00;;;;;;;;;;6189164;28;20449;-88
2022/07/08 13:27:24;;;;;;;7.68;6.13;;;;;;;;;;6189572;28;20490;-89
2022/07/08 13:30:24;;;;;;;12.40;7.00;;;;;;;;;;6187502;28;20033;-89
2022/07/08 13:33:25;;;;;;;16.73;7.83;;;;;;;;;;6179615;28;20030;-89
2022/07/08 13:36:29;;;;;;;16.03;10.47;;;;;;;;;;6200631;28;20065;-89
2022/07/08 13:39:29;;;;;;;17.00;9.63;;;;;;;;;;6188750;28;20620;-89
2022/07/08 13:42:29;;;;;;;14.73;9.60;;;;;;;;;;6189805;28;20034;-90
2022/07/08 13:45:29;;;;;;;17.97;10.93;;;;;;;;;;6178431;28;20022;-89
2022/07/08 13:48:30;;;;;;;11.63;9.27;;;;;;;;;;6179349;28;20031;-89
2022/07/08 13:51:30;;;;;;;11.53;6.50;;;;;;;;;;6186510;28;20018;-90
2022/07/08 13:54:32;;;;;;;7.33;5.13;;;;;;;;;;6177297;28;20030;-89
2022/07/08 13:57:32;;;;;;;8.45;4.13;;;;;;;;;;6183918;28;20120;-89
2022/07/08 14:00:33;;;;;;;27.70;9.45;;;;;;;;;;6188921;28;20476;-90
2022/07/08 14:03:35;;;;;;;15.83;7.73;;;;;;;;;;6188697;28;20101;-90
2022/07/08 14:06:35;;;;;;;11.45;7.55;;;;;;;;;;6186628;28;20030;-89
2022/07/08 14:09:36;;;;;;;18.02;8.85;;;;;;;;;;6176740;28;20531;-90
2022/07/08 14:12:39;;;;;;;13.43;8.50;;;;;;;;;;6181784;28;20465;-90
2022/07/08 14:15:39;;;;;;;16.85;9.20;;;;;;;;;;6175317;28;20052;-90
2022/07/08 14:18:43;;;;;;;19.80;10.23;;;;;;;;;;6170910;28;20022;-89
2022/07/08 14:21:43;;;;;;;17.98;10.60;;;;;;;;;;6183376;28;20027;-89
2022/07/08 14:24:43;;;;;;;15.37;11.47;;;;;;;;;;6185541;28;20042;-90
2022/07/08 14:27:47;;;;;;;15.23;11.67;;;;;;;;;;6185775;28;20175;-90
2022/07/08 14:31:12;;;;;;;;;;;;;;;;;;;;;
2022/07/08 14:38:07;;;;;;;12.15;9.75;;;;;;;;;;6172125;28;20247;-90
2022/07/08 14:41:49;;;;;;;;;;;;;;;;;;;;;
2022/07/08 14:44:56;;;;;;;11.20;9.05;;;;;;;;;;6179084;28;20173;-90
2022/07/08 14:48:23;;;;;;;;;;;;;;;;;;;;;
2022/07/08 14:51:26;;;;;;;15.90;11.27;;;;;;;;;;6178731;28;20129;-90
2022/07/08 14:54:33;;;;;;;12.25;9.82;;;;;;;;;;6180878;28;20509;-90
2022/07/08 14:57:50;;;;;;;11.18;8.07;;;;;;;;;;6177227;28;20490;-91
2022/07/08 15:01:05;;;;;;;12.85;7.28;;;;;;;;;;6181492;28;20022;-89
2022/07/08 15:04:06;;;;;;;13.70;6.72;;;;;;;;;;6185557;28;20343;-89
2022/07/08 15:07:06;;;;;;;9.40;4.73;;;;;;;;;;6187374;28;20334;-89
2022/07/08 15:10:07;;;;;;;6.40;3.65;;;;;;;;;;6181043;28;20138;-89
2022/07/08 15:13:07;;;;;;;4.00;2.40;;;;;;;;;;6180257;28;20077;-89
2022/07/08 15:16:07;;;;;;;7.17;2.57;;;;;;;;;;6187305;28;20306;-89
2022/07/08 15:19:08;;;;;;;7.07;3.73;;;;;;;;;;6189676;28;20117;-89
2022/07/08 15:22:09;;;;;;;8.10;3.88;;;;;;;;;;6186055;28;20026;-89
2022/07/08 15:25:09;;;;;;;8.10;3.33;;;;;;;;;;6192106;28;20728;-89
2022/07/08 15:28:09;;;;;;;5.13;2.50;;;;;;;;;;6188760;28;20022;-90
2022/07/08 15:31:10;;;;;;;7.10;4.03;;;;;;;;;;6179392;28;20368;-89
2022/07/08 15:34:10;;;;;;;5.27;2.40;;;;;;;;;;6185136;28;20026;-89
2022/07/08 15:37:10;;;;;;;4.67;2.40;;;;;;;;;;6179370;28;20023;-89
2022/07/08 15:40:10;;;;;;;5.87;3.00;;;;;;;;;;6181423;28;20084;-89
2022/07/08 15:43:11;;;;;;;6.30;2.43;;;;;;;;;;6176121;28;20081;-88
2022/07/08 15:46:11;;;;;;;3.43;2.80;;;;;;;;;;6179448;28;20027;-88
2022/07/08 15:49:11;;;;;;;4.30;2.60;;;;;;;;;;6174836;28;20034;-88
2022/07/08 15:52:13;;;;;;;5.63;2.90;;;;;;;;;;6182399;28;20473;-89
2022/07/08 15:55:14;;;;;;;3.03;2.47;;;;;;;;;;6184099;28;20470;-87
2022/07/08 15:58:14;;;;;;;6.88;2.90;;;;;;;;;;6175929;28;20368;-88
2022/07/08 16:01:15;;;;;;;6.57;2.63;;;;;;;;;;6180309;28;20021;-88
2022/07/08 16:04:15;;;;;;;12.35;2.78;;;;;;;;;;6186319;28;20022;-88
2022/07/08 16:07:15;;;;;;;4.83;2.97;;;;;;;;;;6187543;28;20026;-88
2022/07/08 16:10:16;;;;;;;7.00;2.47;;;;;;;;;;6192233;28;20025;-88
2022/07/08 16:13:16;;;;;;;4.93;2.77;;;;;;;;;;6188746;28;20533;-88
2022/07/08 16:16:16;;;;;;;6.28;2.33;;;;;;;;;;6186811;28;20027;-88
2022/07/08 16:19:17;;;;;;;3.97;2.40;;;;;;;;;;6181699;28;20034;-88
2022/07/08 16:22:17;;;;;;;3.03;1.83;;;;;;;;;;6185298;28;20018;-88
2022/07/08 16:25:17;;;;;;;4.72;2.70;;;;;;;;;;6187496;28;20050;-88
2022/07/08 16:28:18;;;;;;;5.40;2.63;;;;;;;;;;6181685;28;20726;-88
2022/07/08 16:31:19;;;;;;;3.50;1.90;;;;;;;;;;6180559;28;20022;-88
2022/07/08 16:34:19;;;;;;;;;;;;;;;;;;6181021;28;20423;-88
2022/07/08 16:37:20;;;;;;;4.72;1.98;;;;;;;;;;6188572;28;20173;-87
2022/07/08 16:40:20;;;;;;;4.68;1.88;;;;;;;;;;6187134;28;20041;-88
2022/07/08 16:43:20;;;;;;;6.75;2.45;;;;;;;;;;6178274;28;20027;-88
2022/07/08 16:46:20;;;;;;;5.00;2.07;;;;;;;;;;6185114;28;20153;-87
2022/07/08 16:49:21;;;;;;;8.07;3.37;;;;;;;;;;6184632;28;20092;-88
2022/07/08 16:52:21;;;;;;;6.50;2.00;;;;;;;;;;6186833;28;20069;-87
2022/07/08 16:55:21;;;;;;;5.07;1.73;;;;;;;;;;6186812;28;20027;-88
2022/07/08 16:58:21;;;;;;;4.13;1.97;;;;;;;;;;6183248;28;20099;-88
2022/07/08 17:01:22;;;;;;;5.90;2.43;;;;;;;;;;6181446;28;20386;-87
2022/07/08 17:04:22;;;;;;;2.80;1.95;;;;;;;;;;6180147;28;20015;-88
2022/07/08 17:07:22;;;;;;;4.17;2.17;;;;;;;;;;6179041;28;20343;-87
2022/07/08 17:10:22;;;;;;;5.78;1.85;;;;;;;;;;6175901;28;20057;-87
2022/07/08 17:13:22;;;;;;;7.60;2.17;;;;;;;;;;6172729;28;20022;-87
2022/07/08 17:16:23;;;;;;;3.17;1.90;;;;;;;;;;6181117;28;20541;-87
2022/07/08 17:19:24;;;;;;;6.10;1.85;;;;;;;;;;6163800;28;20097;-87
2022/07/08 17:22:24;;;;;;;2.70;1.50;;;;;;;;;;6182880;28;20470;-87
2022/07/08 17:25:24;;;;;;;5.47;1.60;;;;;;;;;;6185432;28;20494;-87
2022/07/08 17:28:25;;;;;;;3.03;1.73;;;;;;;;;;6186299;28;20057;-87
2022/07/08 17:31:25;;;;;;;2.00;1.70;;;;;;;;;;6173024;28;20271;-88
2022/07/08 17:34:26;;;;;;;7.47;1.57;;;;;;;;;;6180527;28;20027;-87
2022/07/08 17:37:27;;;;;;;3.88;2.10;;;;;;;;;;6194406;28;20033;-87
2022/07/08 17:40:27;;;;;;;4.70;1.47;;;;;;;;;;6181051;28;20018;-88
2022/07/08 17:43:27;;;;;;;4.47;1.57;;;;;;;;;;6184456;28;20033;-88
2022/07/08 17:46:27;;;;;;;9.90;1.87;;;;;;;;;;6185184;28;20056;-88
2022/07/08 17:49:28;;;;;;;4.27;1.43;;;;;;;;;;6179461;28;20018;-87
2022/07/08 17:52:28;;;;;;;4.83;1.50;;;;;;;;;;6182512;28;20382;-87
2022/07/08 17:55:28;;;;;;;4.37;1.47;;;;;;;;;;6182872;28;20048;-88
2022/07/08 17:58:29;;;;;;;4.23;1.40;;;;;;;;;;6182090;28;20029;-88
2022/07/08 18:01:29;;;;;;;4.13;1.60;;;;;;;;;;6186473;28;20857;-88
2022/07/08 18:04:30;;;;;;;5.40;1.80;;;;;;;;;;6182372;28;20545;-88
2022/07/08 18:07:30;;;;;;;4.13;1.47;;;;;;;;;;6187931;28;20022;-89
2022/07/08 18:10:30;;;;;;;5.23;1.33;;;;;;;;;;6186149;28;20149;-88
2022/07/08 18:13:30;;;;;;;3.37;1.50;;;;;;;;;;6186709;28;20025;-88
2022/07/08 18:16:32;;;;;;;5.05;1.52;;;;;;;;;;6180446;28;20109;-87